Time;durP1;ratioP1;P1;durP2;ratioP2;P2;SDS_P1;SDS_P2;PMS_P1;PMS_P2;Temp;Humidity;BMP_temperature;BMP_pressure;BME280_temperature;BME280_humidity;BME280_pressure;Samples;Min_cycle;Max_cycle;Signal;HPM_P1;HPM_P2
2022/01/15 00:00:44;;;;;;;127.70;33.20;;;;;;;3.64;89.60;103421.09;5025780;28;20040;-67
2022/01/15 00:03:10;;;;;;;138.65;36.88;;;;;;;3.64;89.77;103408.06;5019991;28;20055;-71
2022/01/15 00:05:36;;;;;;;132.02;35.05;;;;;;;3.76;89.22;103413.75;5045707;28;20025;-70
2022/01/15 00:08:03;;;;;;;142.05;33.72;;;;;;;3.63;89.58;103407.19;5044535;28;20180;-70
2022/01/15 00:10:29;;;;;;;130.65;34.63;;;;;;;3.63;89.50;103407.19;5045681;28;20037;-70
2022/01/15 00:12:58;;;;;;;145.63;36.40;;;;;;;3.62;89.62;103407.16;5015126;28;20057;-69
2022/01/15 00:15:29;;;;;;;154.10;37.25;;;;;;;3.65;89.74;103396.84;5025698;28;20101;-69
2022/01/15 00:18:00;;;;;;;153.50;36.50;;;;;;;3.66;89.51;103398.59;5026360;28;20049;-70
2022/01/15 00:20:26;;;;;;;150.65;35.45;;;;;;;3.66;89.25;103390.78;5028721;28;20634;-70
2022/01/15 00:22:53;;;;;;;159.52;36.72;;;;;;;3.61;89.68;103392.34;5028331;28;20037;-69
2022/01/15 00:25:20;;;;;;;133.85;33.40;;;;;;;3.57;89.71;103395.66;5029402;28;20491;-70
2022/01/15 00:27:45;;;;;;;132.20;29.25;;;;;;;3.61;89.51;103392.34;5010260;28;20392;-69
2022/01/15 00:30:12;;;;;;;131.23;33.22;;;;;;;3.56;89.90;103399.09;5016763;28;20052;-69
2022/01/15 00:32:38;;;;;;;129.15;30.98;;;;;;;3.60;89.60;103395.75;5048434;28;20075;-71
2022/01/15 00:35:05;;;;;;;130.98;31.42;;;;;;;3.54;89.28;103392.13;5048042;28;20017;-70
2022/01/15 00:37:31;;;;;;;165.85;34.08;;;;;;;3.48;89.26;103389.28;5028654;28;20048;-70
2022/01/15 00:40:01;;;;;;;135.02;33.03;;;;;;;3.52;89.51;103383.34;5027083;28;20083;-70
2022/01/15 00:42:28;;;;;;;135.10;34.65;;;;;;;3.50;89.48;103373.69;5028877;28;20026;-71
2022/01/15 00:44:55;;;;;;;119.28;28.80;;;;;;;3.51;89.74;103372.84;5027924;28;20028;-71
2022/01/15 00:47:21;;;;;;;132.07;32.90;;;;;;;3.52;89.52;103372.91;5020714;28;20037;-71
2022/01/15 00:49:46;;;;;;;111.90;28.67;;;;;;;3.52;89.68;103372.91;5048780;28;20028;-70
2022/01/15 00:52:12;;;;;;;137.98;31.52;;;;;;;3.45;89.93;103368.31;5048093;28;20044;-69
2022/01/15 00:54:37;;;;;;;133.80;32.17;;;;;;;3.42;89.84;103370.78;5042107;28;20025;-70
2022/01/15 00:57:02;;;;;;;114.82;29.15;;;;;;;3.39;89.97;103365.47;5028592;28;20052;-70
2022/01/15 00:59:28;;;;;;;118.82;30.30;;;;;;;3.41;89.38;103356.88;5027674;28;20018;-70
2022/01/15 01:01:53;;;;;;;111.60;28.98;;;;;;;3.31;89.55;103359.97;5026993;28;20033;-71
2022/01/15 01:04:19;;;;;;;88.32;24.10;;;;;;;3.32;89.84;103358.25;5027342;28;20388;-69
2022/01/15 01:06:44;;;;;;;106.13;30.23;;;;;;;3.35;89.35;103360.97;5027697;28;20025;-70
2022/01/15 01:09:10;;;;;;;109.05;29.60;;;;;;;3.38;89.57;103355.88;5028416;28;20036;-70
2022/01/15 01:11:51;;;;;;;118.43;28.80;;;;;;;3.36;89.54;103354.91;5009944;28;20064;-68
2022/01/15 01:25:12;;;;;;;129.98;33.38;;;;;;;3.43;89.32;103330.84;5024451;28;20095;-69
2022/01/15 01:27:46;;;;;;;92.90;26.02;;;;;;;3.49;89.31;103328.47;5026622;28;20079;-69
2022/01/15 01:30:21;;;;;;;122.60;31.90;;;;;;;3.43;89.43;103333.47;5026597;28;20373;-71
2022/01/15 01:32:52;;;;;;;99.53;26.90;;;;;;;3.44;89.69;103330.03;5010858;28;20026;-71
2022/01/15 01:35:36;;;;;;;113.05;32.08;;;;;;;3.39;89.45;103326.38;5048198;28;20474;-71
2022/01/15 01:38:11;;;;;;;114.50;31.80;;;;;;;3.39;89.66;103324.66;5047274;28;20163;-70
2022/01/15 01:40:43;;;;;;;108.43;30.15;;;;;;;3.31;89.59;103327.81;5029891;28;20467;-70
2022/01/15 01:45:49;;;;;;;98.78;26.20;;;;;;;3.31;89.98;103322.59;5027539;28;20029;-70
2022/01/15 01:48:14;;;;;;;125.82;30.25;;;;;;;3.22;89.88;103320.56;5026948;28;20248;-68
2022/01/15 01:50:40;;;;;;;112.30;28.38;;;;;;;3.25;89.97;103311.09;5027211;28;20033;-70
2022/01/15 01:53:05;;;;;;;121.10;29.45;;;;;;;3.28;90.12;103312.94;5027337;28;20025;-70
2022/01/15 01:55:30;;;;;;;117.95;28.77;;;;;;;3.22;89.98;103313.59;5009228;28;20029;-69
2022/01/15 01:57:57;;;;;;;103.85;25.95;;;;;;;3.20;89.83;103310.06;5026327;28;20048;-71
2022/01/15 02:00:24;;;;;;;116.43;29.58;;;;;;;3.17;89.66;103315.16;5026466;28;20533;-69
2022/01/15 02:02:51;;;;;;;119.57;29.80;;;;;;;3.10;90.07;103307.97;5007524;28;20013;-69
2022/01/15 02:05:17;;;;;;;122.50;28.40;;;;;;;3.15;90.36;103301.19;5028657;28;20030;-69
2022/01/15 02:07:43;;;;;;;111.20;27.90;;;;;;;3.13;90.13;103298.53;5048025;28;20029;-70
2022/01/15 02:10:12;;;;;;;108.28;28.30;;;;;;;3.16;90.00;103298.63;5046480;28;20432;-71
2022/01/15 02:12:38;;;;;;;106.10;26.05;;;;;;;3.22;89.96;103289.28;5047283;28;20021;-71
2022/01/15 02:15:08;;;;;;;116.07;28.05;;;;;;;3.15;90.06;103290.75;5028268;28;20022;-69
2022/01/15 02:17:34;;;;;;;83.15;22.40;;;;;;;3.21;89.51;103285.78;5025159;28;20056;-70
2022/01/15 02:20:22;;;;;;;98.32;25.10;;;;;;;3.15;89.27;103289.06;5026347;28;20056;-71
2022/01/15 02:23:35;;;;;;;82.22;25.63;;;;;;;3.09;89.35;103290.53;5026190;28;20112;-70
2022/01/15 02:25:48;;;;;;;82.03;23.45;;;;;;;2.94;89.49;103283.94;5009688;28;20040;-70
2022/01/15 02:28:16;;;;;;;97.70;24.45;;;;;;;2.92;89.65;103290.78;5009609;28;20029;-69
2022/01/15 02:30:41;;;;;;;103.25;26.10;;;;;;;2.86;89.67;103280.16;5008294;28;20474;-69
2022/01/15 02:33:07;;;;;;;79.72;21.80;;;;;;;2.94;89.88;103276.09;5024418;28;20105;-68
2022/01/15 02:35:33;;;;;;;91.57;25.33;;;;;;;2.97;90.04;103270.13;5007516;28;20036;-69
2022/01/15 02:38:03;;;;;;;83.15;22.73;;;;;;;2.88;89.95;103270.66;5026035;28;20056;-70
2022/01/15 02:40:29;;;;;;;90.75;23.70;;;;;;;2.94;89.84;103268.28;5025813;28;20033;-70
2022/01/15 02:42:56;;;;;;;77.32;20.63;;;;;;;2.89;89.84;103259.44;5026025;28;20379;-69
2022/01/15 02:45:22;;;;;;;77.88;21.80;;;;;;;2.93;89.63;103266.53;5025387;28;20361;-69
2022/01/15 02:48:02;;;;;;;74.68;21.15;;;;;;;2.88;89.66;103260.25;5025289;28;20124;-68
2022/01/15 02:50:29;;;;;;;90.63;23.90;;;;;;;2.83;89.51;103251.41;5011210;28;20026;-71
2022/01/15 02:52:54;;;;;;;104.13;24.67;;;;;;;2.72;89.98;103244.06;5024903;28;20021;-69
2022/01/15 02:55:20;;;;;;;94.35;24.42;;;;;;;2.70;90.24;103245.72;5026843;28;20468;-70
2022/01/15 02:57:45;;;;;;;101.43;23.92;;;;;;;2.71;89.82;103237.06;5025264;28;20110;-68
2022/01/15 03:00:11;;;;;;;83.10;21.05;;;;;;;2.77;89.84;103237.31;5026449;28;20021;-70
2022/01/15 03:02:37;;;;;;;105.03;23.98;;;;;;;2.80;90.06;103233.03;5025038;28;20040;-70
2022/01/15 03:05:02;;;;;;;95.95;23.55;;;;;;;2.60;90.30;103231.47;5025691;28;20017;-69
2022/01/15 03:07:28;;;;;;;91.30;23.27;;;;;;;2.67;90.42;103235.19;5007801;28;20025;-71
2022/01/15 03:09:53;;;;;;;89.28;21.75;;;;;;;2.75;90.10;103231.16;5025852;28;20034;-70
2022/01/15 03:12:19;;;;;;;88.40;22.50;;;;;;;2.75;89.99;103228.56;5025874;28;20409;-71
2022/01/15 03:14:47;;;;;;;74.35;18.15;;;;;;;2.78;89.78;103218.25;5025790;28;20021;-68
2022/01/15 03:17:12;;;;;;;80.93;19.63;;;;;;;2.73;89.97;103219.78;5008478;28;20111;-71
2022/01/15 03:19:37;;;;;;;96.90;22.10;;;;;;;2.77;89.94;103220.81;5025529;28;20117;-68
2022/01/15 03:22:04;;;;;;;97.82;22.42;;;;;;;2.76;90.16;103227.72;5025626;28;20233;-69
2022/01/15 03:24:30;;;;;;;78.32;19.55;;;;;;;2.73;90.08;103224.09;5008367;28;20116;-71
2022/01/15 03:26:55;;;;;;;84.25;20.70;;;;;;;2.76;89.89;103225.13;5007704;28;20058;-70
2022/01/15 03:29:20;;;;;;;68.47;17.85;;;;;;;2.74;89.90;103223.28;5025290;28;20029;-69
2022/01/15 03:31:46;;;;;;;58.55;16.17;;;;;;;2.71;89.64;103221.44;5024220;28;20049;-70
2022/01/15 03:34:11;;;;;;;67.03;17.08;;;;;;;2.76;89.71;103214.69;5026336;28;20100;-70
2022/01/15 03:36:36;;;;;;;71.75;19.10;;;;;;;2.74;89.36;103215.47;5025030;28;20388;-70
2022/01/15 03:39:02;;;;;;;71.93;17.83;;;;;;;2.74;89.45;103205.94;5025269;28;20029;-69
2022/01/15 03:41:27;;;;;;;73.07;19.02;;;;;;;2.70;89.10;103211.88;5025936;28;20042;-72
2022/01/15 03:43:53;;;;;;;55.38;18.92;;;;;;;2.80;89.13;103212.22;5024692;28;20091;-69
2022/01/15 03:46:20;;;;;;;58.83;17.98;;;;;;;2.78;88.63;103210.44;5023801;28;20443;-70
2022/01/15 03:48:47;;;;;;;66.60;17.75;;;;;;;2.80;88.72;103205.28;5024851;28;20034;-68
2022/01/15 03:51:13;;;;;;;56.25;16.55;;;;;;;2.78;88.76;103207.84;5024759;28;20503;-70
2022/01/15 03:53:38;;;;;;;56.35;16.02;;;;;;;2.60;88.98;103205.44;5007841;28;20069;-71
2022/01/15 03:56:03;;;;;;;64.43;18.10;;;;;;;2.48;89.48;103192.84;5024509;28;20584;-72
2022/01/15 03:58:29;;;;;;;58.05;16.73;;;;;;;2.49;89.38;103191.09;5025094;28;20045;-71
2022/01/15 04:00:54;;;;;;;60.92;17.60;;;;;;;2.52;89.39;103194.72;5024920;28;20028;-69
2022/01/15 04:03:19;;;;;;;57.33;15.38;;;;;;;2.52;89.29;103186.91;5024231;28;20021;-68
2022/01/15 04:05:45;;;;;;;61.45;16.65;;;;;;;2.56;89.49;103185.31;5025670;28;20495;-69
2022/01/15 04:08:10;;;;;;;73.88;20.08;;;;;;;2.53;89.83;103186.09;5024368;28;20112;-69
2022/01/15 04:10:35;;;;;;;84.93;21.00;;;;;;;2.56;89.90;103184.44;5025183;28;20045;-70
2022/01/15 04:13:01;;;;;;;84.68;20.63;;;;;;;2.52;89.89;103171.31;5024848;28;20038;-70
2022/01/15 04:15:26;;;;;;;64.57;18.27;;;;;;;2.58;89.65;103178.44;5023383;28;20091;-71
2022/01/15 04:17:51;;;;;;;66.60;17.73;;;;;;;2.60;89.37;103178.50;5024520;28;20083;-70
2022/01/15 04:20:21;;;;;;;52.03;13.57;;;;;;;2.53;89.47;103175.66;5024741;28;20025;-69
2022/01/15 04:22:46;;;;;;;72.90;18.65;;;;;;;2.46;89.77;103168.47;5024445;28;20502;-72
2022/01/15 04:25:12;;;;;;;69.45;17.85;;;;;;;2.37;89.88;103173.31;5026326;28;20013;-68
2022/01/15 04:27:38;;;;;;;69.10;19.77;;;;;;;2.39;89.93;103161.25;5024647;28;20476;-71
2022/01/15 04:30:06;;;;;;;80.43;20.02;;;;;;;2.39;89.86;103161.25;5024303;28;20053;-71
2022/01/15 04:32:31;;;;;;;80.88;21.13;;;;;;;2.42;89.93;103169.19;5023313;28;20045;-71
2022/01/15 04:34:58;;;;;;;72.20;19.27;;;;;;;2.41;90.00;103170.03;5006869;28;20490;-71
2022/01/15 04:37:25;;;;;;;81.90;22.48;;;;;;;2.42;90.10;103165.69;5024674;28;20088;-71
2022/01/15 04:39:51;;;;;;;82.88;20.92;;;;;;;2.35;90.39;103146.38;5023443;28;20040;-72
2022/01/15 04:42:20;;;;;;;87.00;21.65;;;;;;;2.40;90.71;103145.69;5024272;28;20065;-71
2022/01/15 04:44:46;;;;;;;82.75;21.08;;;;;;;2.43;90.32;103146.63;5024052;28;20029;-71
2022/01/15 04:47:11;;;;;;;64.30;17.90;;;;;;;2.50;89.97;103146.06;5006417;28;20566;-70
2022/01/15 04:49:36;;;;;;;76.13;21.05;;;;;;;2.45;89.63;103134.56;5024858;28;20021;-71
2022/01/15 04:52:02;;;;;;;69.10;19.60;;;;;;;2.39;89.43;103132.63;5023403;28;20029;-71
2022/01/15 04:54:28;;;;;;;73.97;19.83;;;;;;;2.26;89.47;103141.72;5023923;28;20028;-71
2022/01/15 04:56:53;;;;;;;78.70;19.45;;;;;;;2.23;90.20;103145.06;5006490;28;20031;-70
2022/01/15 04:59:20;;;;;;;70.13;21.08;;;;;;;2.25;90.04;103146.00;5024375;28;20411;-70
2022/01/15 05:01:45;;;;;;;90.60;22.50;;;;;;;2.21;89.90;103138.91;5006589;28;20038;-70
2022/01/15 05:04:11;;;;;;;87.35;21.45;;;;;;;2.22;90.31;103135.47;5009552;28;20036;-70
2022/01/15 05:06:36;;;;;;;97.93;23.05;;;;;;;2.22;90.48;103135.47;5027861;28;20108;-70
2022/01/15 05:09:05;;;;;;;82.00;22.70;;;;;;;2.32;90.54;103136.72;5027324;28;20021;-71
2022/01/15 05:11:43;;;;;;;65.20;18.45;;;;;;;2.41;90.32;103133.59;5027208;28;20069;-71
2022/01/15 05:14:10;;;;;;;66.70;19.67;;;;;;;2.40;89.89;103127.50;5028549;28;20101;-72
2022/01/15 05:16:36;;;;;;;114.78;22.73;;;;;;;2.43;89.70;103121.50;5027006;28;20029;-73
2022/01/15 05:19:01;;;;;;;84.90;21.13;;;;;;;2.38;89.53;103117.88;5027174;28;20033;-70
2022/01/15 05:21:26;;;;;;;71.80;19.05;;;;;;;2.34;89.75;103116.84;5028384;28;20117;-70
2022/01/15 05:23:52;;;;;;;64.03;17.38;;;;;;;2.37;89.56;103105.66;5024383;28;20036;-70
2022/01/15 05:26:17;;;;;;;76.60;21.25;;;;;;;2.33;89.60;103104.69;5027746;28;20068;-67
2022/01/15 05:28:42;;;;;;;80.60;20.58;;;;;;;2.29;89.72;103086.28;5028392;28;20117;-70
2022/01/15 05:31:08;;;;;;;111.43;20.77;;;;;;;2.15;89.91;103104.88;5027630;28;20036;-71
2022/01/15 05:33:33;;;;;;;79.53;19.77;;;;;;;2.10;90.05;103099.47;5026957;28;20053;-70
2022/01/15 05:35:59;;;;;;;117.72;21.70;;;;;;;2.12;90.18;103094.34;5027623;28;20060;-71
2022/01/15 05:38:25;;;;;;;91.68;19.90;;;;;;;2.04;90.23;103093.19;5027355;28;20026;-70
2022/01/15 05:40:50;;;;;;;141.52;23.35;;;;;;;1.98;90.31;103088.59;5027385;28;20495;-69
2022/01/15 05:43:15;;;;;;;89.53;20.80;;;;;;;2.06;90.48;103078.50;5027897;28;20017;-70
2022/01/15 05:45:40;;;;;;;72.43;18.92;;;;;;;2.09;90.28;103076.00;5027428;28;20040;-70
2022/01/15 05:48:06;;;;;;;79.70;20.60;;;;;;;2.05;90.39;103076.72;5009158;28;20025;-70
2022/01/15 05:50:31;;;;;;;94.78;20.38;;;;;;;2.04;90.46;103064.56;5027895;28;20028;-71
2022/01/15 05:52:58;;;;;;;72.90;19.30;;;;;;;2.06;90.31;103065.50;5027221;28;20428;-71
2022/01/15 05:55:24;;;;;;;101.53;21.27;;;;;;;2.10;90.24;103064.78;5010175;28;20188;-71
2022/01/15 05:57:49;;;;;;;142.60;24.98;;;;;;;1.99;90.28;103067.00;5027273;28;20032;-70
2022/01/15 06:00:15;;;;;;;101.75;24.90;;;;;;;1.96;90.45;103059.06;5027172;28;20539;-69
2022/01/15 06:02:40;;;;;;;134.80;25.52;;;;;;;1.86;90.56;103060.41;5027233;28;20076;-70
2022/01/15 06:05:06;;;;;;;98.43;24.90;;;;;;;1.91;90.41;103058.88;5027075;28;20064;-70
2022/01/15 06:07:31;;;;;;;96.20;24.25;;;;;;;1.92;90.25;103060.66;5026953;28;20108;-71
2022/01/15 06:09:56;;;;;;;66.38;18.65;;;;;;;1.98;90.25;103055.69;5026866;28;20434;-71
2022/01/15 06:12:28;;;;;;;103.20;23.45;;;;;;;1.97;90.10;103043.53;5026843;28;20605;-72
2022/01/15 06:14:54;;;;;;;95.07;25.48;;;;;;;2.02;90.05;103044.56;5025952;28;20505;-72
2022/01/15 06:17:19;;;;;;;90.13;24.15;;;;;;;1.96;90.14;103046.06;5026155;28;20041;-71
2022/01/15 06:19:44;;;;;;;104.40;27.27;;;;;;;1.89;90.42;103045.84;5025895;28;20025;-66
2022/01/15 06:22:09;;;;;;;192.70;30.85;;;;;;;1.91;90.45;103058.00;5025550;28;20022;-70
2022/01/15 06:24:35;;;;;;;121.82;27.58;;;;;;;1.94;90.54;103059.00;5026522;28;20021;-69
2022/01/15 06:27:00;;;;;;;105.38;26.63;;;;;;;1.99;90.21;103057.47;5026092;28;20025;-70
2022/01/15 06:29:25;;;;;;;110.03;26.33;;;;;;;1.98;90.36;103049.59;5027117;28;20076;-72
2022/01/15 06:31:52;;;;;;;121.30;28.40;;;;;;;1.95;90.14;103044.28;5024459;28;20602;-71
2022/01/15 06:34:18;;;;;;;108.13;28.50;;;;;;;1.94;90.35;103035.59;5026132;28;20363;-71
2022/01/15 06:36:43;;;;;;;101.90;28.50;;;;;;;1.86;90.47;103031.81;5025940;28;20310;-71
2022/01/15 06:39:08;;;;;;;133.60;29.75;;;;;;;1.72;90.62;103032.16;5026951;28;20030;-70
2022/01/15 06:41:34;;;;;;;124.22;31.08;;;;;;;1.74;90.77;103035.72;5025843;28;20033;-70
2022/01/15 06:43:59;;;;;;;131.73;32.03;;;;;;;1.72;91.32;103037.38;5026255;28;20025;-70
2022/01/15 06:46:24;;;;;;;88.90;26.27;;;;;;;1.75;90.95;103037.50;5025985;28;20049;-69
2022/01/15 06:48:50;;;;;;;155.77;33.10;;;;;;;1.72;91.12;103039.97;5025136;28;20423;-70
2022/01/15 06:51:15;;;;;;;114.45;30.48;;;;;;;1.79;90.95;103048.00;5025570;28;20038;-70
2022/01/15 06:53:41;;;;;;;129.45;30.65;;;;;;;1.79;91.07;103042.81;5025614;28;20025;-70
2022/01/15 06:56:06;;;;;;;94.60;26.58;;;;;;;1.88;90.86;103043.16;5026306;28;20026;-70
2022/01/15 06:58:31;;;;;;;154.48;33.97;;;;;;;1.86;90.90;103044.81;5025738;28;20048;-72
2022/01/15 07:00:57;;;;;;;137.10;31.33;;;;;;;1.84;90.84;103046.50;5026442;28;20468;-72
2022/01/15 07:03:22;;;;;;;125.88;34.35;;;;;;;1.87;90.94;103039.66;5024097;28;20025;-70
2022/01/15 07:05:47;;;;;;;108.88;33.00;;;;;;;1.95;90.88;103033.88;5026166;28;20033;-70
2022/01/15 07:08:13;;;;;;;151.65;35.28;;;;;;;1.94;90.86;103043.41;5025696;28;20064;-72
2022/01/15 07:10:41;;;;;;;145.77;35.17;;;;;;;1.96;90.62;103036.53;5026081;28;20120;-71
2022/01/15 07:13:08;;;;;;;129.85;34.88;;;;;;;1.95;91.00;103037.38;5025100;28;20025;-71
2022/01/15 07:15:34;;;;;;;128.60;35.03;;;;;;;2.00;90.88;103038.44;5026299;28;20040;-71
2022/01/15 07:17:59;;;;;;;101.20;27.77;;;;;;;2.08;90.84;103038.72;5024198;28;20045;-70
2022/01/15 07:20:25;;;;;;;110.38;29.55;;;;;;;2.01;90.36;103040.22;5025736;28;20117;-70
2022/01/15 07:22:50;;;;;;;118.57;32.13;;;;;;;1.98;90.54;103037.50;5025584;28;20465;-70
2022/01/15 07:25:16;;;;;;;129.20;33.25;;;;;;;1.86;90.36;103037.91;5025435;28;20083;-71
2022/01/15 07:27:42;;;;;;;131.57;30.52;;;;;;;1.89;90.59;103047.53;5026503;28;20148;-71
2022/01/15 07:30:09;;;;;;;105.93;31.48;;;;;;;1.97;90.16;103042.63;5007043;28;20041;-72
2022/01/15 07:32:35;;;;;;;113.00;31.55;;;;;;;2.01;90.56;103035.00;5024782;28;20025;-71
2022/01/15 07:35:00;;;;;;;108.00;31.17;;;;;;;2.05;90.42;103028.22;5025883;28;20026;-70
2022/01/15 07:37:26;;;;;;;157.93;34.75;;;;;;;1.99;90.42;103036.66;5020390;28;20030;-70
2022/01/15 07:39:53;;;;;;;133.10;34.38;;;;;;;1.93;90.74;103036.44;5014933;28;20021;-70
2022/01/15 07:42:18;;;;;;;115.25;29.45;;;;;;;2.01;90.64;103034.09;5015448;28;20127;-70
2022/01/15 07:44:44;;;;;;;116.43;33.40;;;;;;;2.02;90.57;103026.38;5016960;28;20488;-70
2022/01/15 07:47:09;;;;;;;115.30;31.77;;;;;;;2.10;90.25;103033.56;5024102;28;20101;-74
2022/01/15 07:49:34;;;;;;;81.55;24.77;;;;;;;2.15;90.45;103024.22;5024818;28;20868;-71
2022/01/15 07:52:01;;;;;;;117.47;35.00;;;;;;;2.09;90.68;103030.09;5023751;28;20384;-70
2022/01/15 07:54:26;;;;;;;168.00;33.45;;;;;;;2.08;90.43;103024.84;5023765;28;20384;-73
2022/01/15 07:56:55;;;;;;;110.43;31.10;;;;;;;2.18;90.29;103024.34;5024183;28;20029;-72
2022/01/15 07:59:21;;;;;;;81.80;25.85;;;;;;;2.25;90.21;103026.34;5024059;28;20026;-70
2022/01/15 08:01:46;;;;;;;105.68;32.35;;;;;;;2.21;90.01;103027.06;5023561;28;20018;-69
2022/01/15 08:04:11;;;;;;;95.32;26.35;;;;;;;2.23;90.24;103029.72;5024097;28;20395;-69
2022/01/15 08:06:39;;;;;;;117.43;32.88;;;;;;;2.16;90.25;103031.19;5024023;28;20020;-70
2022/01/15 08:09:04;;;;;;;87.28;28.38;;;;;;;2.24;90.29;103021.97;5023756;28;20033;-71
2022/01/15 08:11:29;;;;;;;114.43;30.85;;;;;;;2.18;90.25;103016.53;5024774;28;20100;-70
2022/01/15 08:13:55;;;;;;;124.75;35.22;;;;;;;2.18;90.47;103011.34;5024749;28;20083;-69
2022/01/15 08:16:20;;;;;;;141.90;35.75;;;;;;;2.12;90.59;103009.41;5024172;28;20366;-70
2022/01/15 08:18:45;;;;;;;120.32;33.25;;;;;;;2.10;90.74;103005.84;5024037;28;20036;-69
2022/01/15 08:21:11;;;;;;;118.35;33.65;;;;;;;2.19;90.86;103007.91;5024794;28;20036;-71
2022/01/15 08:23:38;;;;;;;142.25;35.13;;;;;;;2.21;90.60;103007.94;5025078;28;20026;-69
2022/01/15 08:26:03;;;;;;;115.00;31.55;;;;;;;2.21;90.41;103008.84;5023839;28;20013;-72
2022/01/15 08:28:28;;;;;;;161.20;33.92;;;;;;;2.13;90.40;103018.06;5024460;28;20120;-73
2022/01/15 08:30:54;;;;;;;149.63;34.17;;;;;;;2.10;90.54;103007.56;5023310;28;20022;-73
2022/01/15 08:33:19;;;;;;;134.43;31.02;;;;;;;2.11;90.69;103009.34;5025470;28;20034;-73
2022/01/15 08:35:45;;;;;;;116.43;33.95;;;;;;;2.20;90.74;102999.25;5024906;28;20516;-64
2022/01/15 08:38:10;;;;;;;107.22;32.92;;;;;;;2.28;90.68;102996.94;5025969;28;20037;-65
2022/01/15 08:40:36;;;;;;;137.43;32.58;;;;;;;2.23;90.70;102993.31;5028725;28;20112;-67
2022/01/15 08:43:03;;;;;;;135.55;34.10;;;;;;;2.31;90.52;102994.44;5010838;28;20026;-67
2022/01/15 08:45:28;;;;;;;130.05;35.15;;;;;;;2.36;90.11;102992.91;5028761;28;20014;-73
2022/01/15 08:47:56;;;;;;;131.65;36.30;;;;;;;2.37;90.30;102986.84;5026937;28;20032;-68
2022/01/15 08:50:22;;;;;;;150.48;38.95;;;;;;;2.36;90.36;102995.50;5027953;28;20375;-70
2022/01/15 08:52:47;;;;;;;127.35;36.17;;;;;;;2.32;90.42;102990.13;5028896;28;20087;-68
2022/01/15 08:55:14;;;;;;;85.70;27.45;;;;;;;2.46;90.30;102991.50;5028856;28;20044;-68
2022/01/15 08:57:39;;;;;;;163.82;36.78;;;;;;;2.44;90.35;102989.69;5027972;28;20504;-68
2022/01/15 09:00:12;;;;;;;145.88;39.40;;;;;;;2.44;90.34;102982.75;5028510;28;20067;-68
2022/01/15 09:02:38;;;;;;;90.65;29.95;;;;;;;2.46;90.24;102980.19;5015698;28;20083;-67
2022/01/15 09:05:04;;;;;;;113.82;35.00;;;;;;;2.57;89.94;102983.16;5009579;28;20029;-67
2022/01/15 09:07:29;;;;;;;134.98;35.83;;;;;;;2.60;90.22;102988.47;5009423;28;20033;-67
2022/01/15 09:09:54;;;;;;;108.38;32.83;;;;;;;2.68;89.72;102991.34;5027423;28;20338;-67
2022/01/15 09:12:22;;;;;;;123.50;35.75;;;;;;;2.66;90.08;102991.31;5026549;28;20036;-69
2022/01/15 09:14:49;;;;;;;101.63;30.60;;;;;;;2.64;89.97;102988.66;5027189;28;20021;-69
2022/01/15 09:17:14;;;;;;;120.97;32.00;;;;;;;2.70;89.92;102993.16;5007965;28;20032;-67
2022/01/15 09:19:39;;;;;;;168.27;37.35;;;;;;;2.66;89.44;102991.31;5026977;28;20100;-68
2022/01/15 09:22:08;;;;;;;119.90;35.97;;;;;;;2.70;89.85;103000.97;5018377;28;20021;-67
2022/01/15 09:24:34;;;;;;;166.60;38.47;;;;;;;2.63;89.63;102986.00;5026572;28;20112;-69
2022/01/15 09:32:08;;;;;;;143.95;36.00;;;;;;;2.70;89.41;102985.38;5025290;28;20072;-67
2022/01/15 09:34:34;;;;;;;115.60;32.90;;;;;;;2.80;89.53;102985.69;5027487;28;21042;-68
2022/01/15 09:37:01;;;;;;;142.35;33.92;;;;;;;2.65;89.35;102980.00;5025382;28;20026;-71
2022/01/15 09:39:26;;;;;;;115.97;36.22;;;;;;;2.62;89.43;102974.69;5015928;28;20041;-67
2022/01/15 09:41:55;;;;;;;98.00;29.00;;;;;;;2.67;89.62;102984.38;5014931;28;20057;-73
2022/01/15 09:44:25;;;;;;;126.47;33.17;;;;;;;2.66;89.87;102983.50;5024472;28;20005;-71
2022/01/15 09:46:50;;;;;;;89.72;27.08;;;;;;;2.77;89.75;102987.34;5017448;28;20030;-72
2022/01/15 09:49:17;;;;;;;101.15;32.80;;;;;;;2.77;89.93;102989.06;5015138;28;20013;-71
2022/01/15 09:51:44;;;;;;;108.45;34.10;;;;;;;2.83;89.66;102980.56;5017431;28;20029;-73
2022/01/15 09:54:10;;;;;;;111.45;33.17;;;;;;;2.86;89.47;102986.75;5024898;28;20033;-69
2022/01/15 09:56:36;;;;;;;107.13;30.08;;;;;;;2.95;89.21;102986.16;5009318;28;20022;-69
2022/01/15 09:59:02;;;;;;;126.70;34.05;;;;;;;2.88;88.72;102984.19;5020246;28;20367;-69
2022/01/15 10:01:29;;;;;;;132.82;32.05;;;;;;;2.78;89.21;102988.22;5025410;28;20018;-69
2022/01/15 10:03:56;;;;;;;136.27;34.10;;;;;;;2.78;89.57;102989.13;5016764;28;20026;-69
2022/01/15 10:06:21;;;;;;;138.85;37.03;;;;;;;2.72;89.37;102982.81;5017406;28;20042;-70
2022/01/15 10:09:10;;;;;;;113.70;33.10;;;;;;;2.75;89.50;102978.59;5027204;28;20027;-68
2022/01/15 10:11:43;;;;;;;68.05;23.10;;;;;;;2.83;89.32;102983.19;5009750;28;20069;-69
2022/01/15 10:14:28;;;;;;;86.25;25.92;;;;;;;2.87;88.78;102983.34;5019227;28;20052;-75
2022/01/15 10:16:55;;;;;;;99.38;30.02;;;;;;;2.85;88.68;102973.69;5023806;28;20029;-76
2022/01/15 10:19:34;;;;;;;109.10;30.73;;;;;;;2.83;88.95;102975.38;5026168;28;20278;-69
2022/01/15 10:22:12;;;;;;;87.25;25.92;;;;;;;2.80;89.14;102967.44;5025704;28;20014;-73
2022/01/15 10:24:39;;;;;;;108.18;27.13;;;;;;;2.90;88.49;102956.50;5020400;28;20064;-66
2022/01/15 10:27:18;;;;;;;89.85;26.67;;;;;;;2.87;88.70;102965.09;5016350;28;20474;-68
2022/01/15 10:29:51;;;;;;;129.63;29.23;;;;;;;2.85;88.77;102968.47;5026060;28;20506;-71
2022/01/15 10:32:17;;;;;;;61.45;22.77;;;;;;;2.86;88.84;102970.25;5024606;28;20040;-73
2022/01/15 10:34:44;;;;;;;88.50;25.58;;;;;;;2.77;88.39;102970.84;5027173;28;20022;-66
2022/01/15 10:37:13;;;;;;;74.70;25.35;;;;;;;2.83;88.45;102976.22;5025026;28;20092;-66
2022/01/15 10:39:41;;;;;;;66.82;24.23;;;;;;;2.82;88.28;102974.47;5021884;28;20049;-67
2022/01/15 10:42:16;;;;;;;78.10;24.63;;;;;;;2.88;88.08;102968.56;5004649;28;20543;-65
2022/01/15 10:44:42;;;;;;;74.18;25.30;;;;;;;2.93;87.80;102959.22;5020625;28;20035;-71
2022/01/15 10:47:17;;;;;;;72.03;24.15;;;;;;;2.95;88.10;102957.50;5006093;28;20037;-67
2022/01/15 10:49:44;;;;;;;67.07;24.27;;;;;;;2.96;87.83;102951.50;5015540;28;20029;-69
2022/01/15 10:52:09;;;;;;;45.42;17.02;;;;;;;3.09;87.87;102942.34;5026283;28;20034;-72
2022/01/15 10:54:49;;;;;;;65.78;23.15;;;;;;;3.01;87.60;102944.69;5025963;28;20483;-66
2022/01/15 10:57:14;;;;;;;70.68;24.33;;;;;;;2.97;87.88;102955.84;5025743;28;20025;-68
2022/01/15 10:59:58;;;;;;;71.95;24.77;;;;;;;3.06;87.81;102951.75;5027004;28;20079;-70
2022/01/15 11:02:24;;;;;;;62.72;23.52;;;;;;;2.91;88.19;102955.66;5021044;28;20072;-63
2022/01/15 11:04:49;;;;;;;72.72;24.05;;;;;;;2.85;88.10;102953.75;5022764;28;20468;-72
2022/01/15 11:07:15;;;;;;;69.13;24.23;;;;;;;2.95;87.97;102954.91;5025181;28;20040;-68
2022/01/15 11:09:46;;;;;;;52.88;21.15;;;;;;;3.08;87.80;102944.91;5022052;28;20057;-70
2022/01/15 11:12:12;;;;;;;43.83;17.67;;;;;;;3.03;85.88;102952.56;5025545;28;20042;-70
2022/01/15 11:14:37;;;;;;;50.95;20.00;;;;;;;2.96;85.74;102948.88;5024623;28;20021;-70
2022/01/15 11:17:03;;;;;;;43.05;17.40;;;;;;;2.97;86.35;102942.84;5025094;28;20421;-72
2022/01/15 11:19:30;;;;;;;61.13;22.45;;;;;;;2.90;86.15;102939.16;5025123;28;20032;-71
2022/01/15 11:21:57;;;;;;;57.78;22.75;;;;;;;2.86;86.48;102939.88;5007111;28;20021;-70
2022/01/15 11:24:22;;;;;;;61.15;22.92;;;;;;;2.82;87.17;102932.81;5008299;28;20040;-70
2022/01/15 11:26:55;;;;;;;65.40;23.13;;;;;;;2.81;87.50;102932.75;5024591;28;20025;-72
2022/01/15 11:29:20;;;;;;;60.85;22.20;;;;;;;2.94;86.86;102932.31;5018545;28;20029;-73